Emden, Germany

4:41 AM CEST on August 29, 2014 (GMT +0200)
Westseite Grosses Meer | Change Station
CLOSE
Current Station
Personal Weather Station
Location: S├╝dbrookmerland, NIEDERSACHSEN
Elevation: -7 ft
Nearby Weather Stations

Elev -7 ft 53.44 °N, 7.28 °E | Updated 10 minutes ago

Overcast
Overcast
62.2 °F
Feels Like 62.2 °F
N
4.5
Wind Variable Wind from SW
Gusts 6.0 mph

Today
High -- | Low -- °F
--% Chance of Precip.
Yesterday
High -- | Low -- °F
Precip. -- in
6:34 AM 8:28 PM
Waxing Crescent, 11% visible
Pressure 29.89 in
Visibility 4.3 miles
Clouds Mostly Cloudy 600 ft
Overcast 700 ft
Dew Point 61 °F
Humidity 96%
Rainfall 0.00 in
Snow Depth Not available.
UV 0.0 out of 12
Pollen Not available.
Air Quality Not available.
Flu Activity Not available.
METAR EHGG 290225Z AUTO 22008KT 7000 BKN006 OVC007 16/15 Q1012

More Conditions Fewer Conditions

Pressure 29.89 in
Visibility 4.3 miles
Clouds Mostly Cloudy 600 ft
Overcast 700 ft
Dew Point 61 °F
Humidity 96%
Rainfall 0.00 in
Snow Depth Not available.
UV 0.0 out of 12
Pollen Not available.
Air Quality Not available.
Flu Activity Not available.
METAR EHGG 290225Z AUTO 22008KT 7000 BKN006 OVC007 16/15 Q1012

More Conditions Fewer Conditions

10-Day Weather Forecast

Almanac

Astronomy

Aug. 29, 2014 Rise Set
Actual Time 6:34 AM CEST 8:28 PM CEST
Civil Twilight 5:57 AM CEST 9:04 PM CEST
Nautical Twilight 5:11 AM CEST 9:50 PM CEST
Astronomical Twilight 4:18 AM CEST 10:43 PM CEST
Moon 10:45 AM CEST 9:37 PM CEST
Length of Visible Light 15h 07m
Length of Day
13h 53m
Tomorrow will be 4m 5s shorter.
Waxing Crescent, 11% of the Moon is Illuminated
Aug 28
Waxing Crescent
Sep 2
First Quarter
Sep 8
Full
Sep 15
Last Quarter
Sep 24
New

Yesterday's Extremes

Country Highs Country Lows

Community

WunderPhotos

Upload Photos

1,748,133 photos uploaded!

Nearby

Snow Depth

Not available.

Earthquake Activity

City Distance Mag. Time & Date
No recent earthquake activity has been reported nearby.
Minimum magnitude displayed is 2.5.

Coastal Water Temperatures

Place Temperature
No Stations Reporting

Nearby Weather Stations